Terminal Aerodrome Forecast
Issued by NWS

Home | Current Version | Previous Version | Graphics & Text | Print | Product List | Glossary On
Versions: 1 2 3 4 5 6 7 8 9 10 11 12 13 14 15 16 17 18 19 20 21 22 23 24 25 26 27 28 29 30 31
000
FTUS43 KGRB 222300
TAFRHI
TAF
KRHI 222328Z 2300/2324 33010G17KT P6SM SCT025 BKN035
      TEMPO 2300/2302 BKN025
     FM230200 33007KT P6SM SCT035 BKN050
     FM231400 34009G15KT P6SM SCT035
      TEMPO 2316/2320 BKN035=

USA.gov is the U.S. government's official web portal to all federal, state and local government web resources and services.